• Join FlightAware (Why Join?)
  • Login
  • US Flag 
02:29PM EST


 

Airport Tracker/Info


-or-


 

Live Flight TrackerFlight Track Log ✈ CSN687 ✈ 05-May-2012 ✈ ZYCC / CGQ - RKSI / ICN

Flight Track Log - Related Links

Times and Time Zones

All times are in EDT time to prevent confusion due to time zone crossing. See the CSN687 flight status page for this flight to view local times or setup timezone preferences in your user account.

Time Position Orientation Groundspeed Altitude Reporting Facility
EDT Latitude Longitude Course Direction KTS MPH feet Rate Location/Type
09:51PM 42.8633 125.4180 171° South  Level Estimated
09:52PM 42.7949 125.4322 171° South  Level Estimated
09:53PM 42.7265 125.4463 171° South  Level Estimated
09:54PM 42.6580 125.4605 171° South  Level Estimated
09:55PM 42.5896 125.4746 171° South  Level Estimated
09:56PM 42.5212 125.4886 171° South  Level Estimated
09:57PM 42.4528 125.5027 171° South  Level Estimated
09:58PM 42.3843 125.5167 171° South  Level Estimated
09:59PM 42.3159 125.5307 171° South  Level Estimated
10:05PM 41.8858 125.6179 171° South  Level Estimated
10:06PM 41.8174 125.6316 171° South  Level Estimated
10:07PM 41.7489 125.6454 171° South  Level Estimated
10:08PM 41.6805 125.6591 172° South  Level Estimated
10:09PM 41.6120 125.6728 172° South  Level Estimated
10:10PM 41.5436 125.6864 172° South  Level Estimated
10:11PM 41.4751 125.7000 172° South  Level Estimated
10:12PM 41.4067 125.7136 172° South  Level Estimated
10:13PM 41.3382 125.7272 172° South  Level Estimated
10:14PM 41.2697 125.7407 172° South  Level Estimated
10:15PM 41.2013 125.7542 172° South  Level Estimated
10:16PM 41.1328 125.7677 172° South  Level Estimated
10:17PM 41.0643 125.7811 172° South  Level Estimated
10:18PM 40.9959 125.7946 172° South  Level Estimated
10:19PM 40.9274 125.8080 172° South  Level Estimated
10:20PM 40.8589 125.8213 172° South  Level Estimated
10:21PM 40.7905 125.8347 172° South  Level Estimated
10:22PM 40.7220 125.8480 172° South  Level Estimated
10:23PM 40.6535 125.8613 172° South  Level Estimated
10:24PM 40.5850 125.8745 172° South  Level Estimated
10:25PM 40.5165 125.8877 172° South  Level Estimated
10:26PM 40.4481 125.9009 172° South  Level Estimated
10:27PM 40.3796 125.9141 172° South  Level Estimated
10:28PM 40.3111 125.9273 172° South  Level Estimated
10:29PM 40.2426 125.9404 172° South  Level Estimated
10:30PM 40.1741 125.9535 172° South  Level Estimated
10:31PM 40.1057 125.9665 172° South  Level Estimated
10:32PM 40.0372 125.9796 172° South  Level Estimated
10:33PM 39.9687 125.9926 172° South  Level Estimated
10:34PM 39.9002 126.0056 172° South  Level Estimated
10:35PM 39.8317 126.0186 172° South  Level Estimated
10:36PM 39.7632 126.0315 172° South  Level Estimated
10:37PM 39.6947 126.0444 172° South  Level Estimated
10:38PM 39.6262 126.0573 172° South  Level Estimated
10:39PM 39.5577 126.0702 172° South  Level Estimated
10:40PM 39.4892 126.0830 172° South  Level Estimated
10:41PM 39.4207 126.0958 172° South  Level Estimated
10:42PM 39.3522 126.1086 172° South  Level Estimated
10:43PM 39.2837 126.1214 172° South  Level Estimated
10:44PM 39.2152 126.1341 172° South  Level Estimated
10:45PM 39.1467 126.1468 172° South  Level Estimated
10:46PM 39.0782 126.1595 172° South  Level Estimated
10:47PM 39.0097 126.1722 172° South  Level Estimated
10:48PM 38.9412 126.1848 172° South  Level Estimated
10:49PM 38.8726 126.1974 172° South  Level Estimated
10:50PM 38.8041 126.2100 172° South  Level Estimated
10:51PM 38.7356 126.2225 172° South  Level Estimated
10:52PM 38.6671 126.2351 172° South  Level Estimated
10:53PM 38.5986 126.2476 172° South  Level Estimated
10:54PM 38.5300 126.2601 172° South  Level Estimated
10:55PM 38.4615 126.2726 172° South  Level Estimated
10:56PM 38.3930 126.2850 172° South  Level Estimated
10:57PM 38.3245 126.2974 172° South  Level Estimated
10:58PM 38.2560 126.3098 172° South  Level Estimated
10:59PM 38.1874 126.3222 172° South  Level Estimated
11:00PM 38.1189 126.3345 172° South  Level Estimated
11:01PM 38.0504 126.3469 172° South  Level Estimated
11:02PM 37.9818 126.3592 172° South  Level Estimated
11:03PM 37.9133 126.3715 172° South  Level Estimated
11:04PM 37.8448 126.3837 172° South  Level Estimated
11:05PM 37.7762 126.3960 172° South  Level Estimated
11:06PM 37.7077 126.4082 172° South  Level Estimated
11:07PM 37.6391 126.4204 172° South  Level Estimated
11:08PM 37.5706 126.4325 172° South  Level Estimated
11:09PM 37.5021 126.4447 172° South  Level Estimated
11:10PM 37.4335 126.4568 352° North  Level Estimated
11:11PM 37.5021 126.4447 172° South  Level Estimated
11:12PM 37.4335 126.4568 352° North  Level Estimated
11:13PM 37.5021 126.4447 172° South  Level Estimated
11:14PM 37.4335 126.4568 352° North  Level Estimated
11:15PM 37.5021 126.4447 172° South  Level Estimated
11:16PM 37.4335 126.4568 352° North  Level Estimated
11:17PM 37.5021 126.4447 172° South  Level Estimated
11:18PM 37.4335 126.4568 352° North  Level Estimated
11:19PM 37.5021 126.4447 172° South  Level Estimated
11:20PM 37.4335 126.4568 352° North  Level Estimated
11:21PM 37.5021 126.4447 172° South  Level Estimated
11:22PM 37.4335 126.4568 352° North  Level Estimated
11:23PM 37.5021 126.4447 172° South  Level Estimated
11:24PM 37.4335 126.4568 352° North  Level Estimated
11:25PM 37.5021 126.4447 352° North  Level Estimated